createdAt,value
2023-03-02T00:02:09.478Z,12.77
2023-03-02T00:04:46.025Z,11.68
2023-03-02T00:07:35.409Z,9.43
2023-03-02T00:10:04.412Z,10.60
2023-03-02T00:12:34.377Z,11.07
2023-03-02T00:15:02.612Z,13.50
2023-03-02T00:17:31.120Z,12.45
2023-03-02T00:20:11.918Z,11.02
2023-03-02T00:22:41.775Z,10.30
2023-03-02T00:25:11.160Z,11.57
2023-03-02T00:27:39.466Z,10.38
2023-03-02T00:30:09.669Z,11.02
2023-03-02T00:32:38.460Z,12.40
2023-03-02T00:37:53.650Z,11.63
2023-03-02T00:40:22.012Z,10.88
2023-03-02T00:42:50.164Z,10.85
2023-03-02T00:45:18.438Z,12.25
2023-03-02T00:47:47.509Z,12.68
2023-03-02T00:50:15.650Z,11.00
2023-03-02T00:52:43.870Z,12.35
2023-03-02T00:55:12.075Z,11.90
2023-03-02T00:57:40.170Z,11.48
2023-03-02T01:00:09.394Z,12.70
2023-03-02T01:02:44.626Z,13.77
2023-03-02T01:05:18.196Z,12.00
2023-03-02T01:07:46.563Z,11.82
2023-03-02T01:10:15.223Z,10.57
2023-03-02T01:12:43.521Z,12.63
2023-03-02T01:15:12.167Z,12.88
2023-03-02T01:18:00.455Z,13.52
2023-03-02T01:20:28.951Z,10.95
2023-03-02T01:22:57.499Z,13.02
2023-03-02T01:25:25.731Z,13.95
2023-03-02T01:27:54.057Z,9.93
2023-03-02T01:30:22.212Z,10.52
2023-03-02T01:33:08.860Z,9.73
2023-03-02T01:35:37.131Z,12.10
2023-03-02T01:38:05.281Z,9.48
2023-03-02T01:40:33.496Z,10.10
2023-03-02T01:43:02.897Z,8.30
2023-03-02T01:45:53.825Z,11.02
2023-03-02T01:48:43.558Z,8.73
2023-03-02T01:51:17.379Z,8.30
2023-03-02T01:53:48.554Z,8.88
2023-03-02T01:59:16.267Z,8.38
2023-03-02T02:02:07.042Z,11.65
2023-03-02T02:04:55.152Z,7.93
2023-03-02T02:07:23.402Z,11.55
2023-03-02T02:09:53.353Z,10.18
2023-03-02T02:12:23.735Z,8.32
2023-03-02T02:14:52.415Z,8.38
2023-03-02T02:17:21.059Z,10.13
2023-03-02T02:23:29.016Z,9.45
2023-03-02T02:26:02.660Z,10.73
2023-03-02T02:28:48.531Z,11.57
2023-03-02T02:31:26.973Z,10.70
2023-03-02T02:34:24.380Z,11.05
2023-03-02T02:37:04.013Z,9.15
2023-03-02T02:39:35.659Z,8.90
2023-03-02T02:42:07.703Z,11.93
2023-03-02T02:44:35.845Z,9.15
2023-03-02T02:47:04.161Z,10.98
2023-03-02T02:49:40.782Z,7.97
2023-03-02T02:52:14.786Z,7.35
2023-03-02T02:54:46.689Z,9.93
2023-03-02T02:57:19.819Z,6.90
2023-03-02T03:00:01.191Z,8.65
2023-03-02T03:02:37.952Z,11.50
2023-03-02T03:05:06.578Z,7.47
2023-03-02T03:07:36.725Z,5.60
2023-03-02T03:10:09.369Z,7.93
2023-03-02T03:12:39.435Z,5.88
2023-03-02T03:15:09.042Z,5.95
2023-03-02T03:17:37.724Z,4.72
2023-03-02T03:20:09.575Z,10.07
2023-03-02T03:22:42.825Z,5.28
2023-03-02T03:25:15.764Z,7.90
2023-03-02T03:27:48.325Z,6.72
2023-03-02T03:30:17.617Z,6.25
2023-03-02T03:32:46.307Z,4.07
2023-03-02T03:35:16.558Z,6.55
2023-03-02T03:37:46.123Z,4.22
2023-03-02T03:40:34.841Z,6.15
2023-03-02T03:43:23.964Z,4.85
2023-03-02T03:45:54.912Z,5.45
2023-03-02T03:48:23.844Z,5.28
2023-03-02T03:50:53.967Z,7.93
2023-03-02T03:53:22.390Z,4.55
2023-03-02T03:55:50.982Z,4.28
2023-03-02T03:58:19.913Z,4.75
2023-03-02T04:00:48.962Z,5.40
2023-03-02T04:03:18.252Z,5.50
2023-03-02T04:05:47.277Z,4.90
2023-03-02T04:08:15.891Z,5.65
2023-03-02T04:10:44.849Z,5.30
2023-03-02T04:13:13.424Z,4.13
2023-03-02T04:15:42.966Z,3.85
2023-03-02T04:18:11.933Z,4.95
2023-03-02T04:20:40.307Z,5.65
2023-03-02T04:23:08.550Z,3.28
2023-03-02T04:25:36.609Z,5.43
2023-03-02T04:28:18.673Z,4.70
2023-03-02T04:30:47.302Z,5.22
2023-03-02T04:33:15.613Z,5.22
2023-03-02T04:35:44.073Z,4.07
2023-03-02T04:38:12.507Z,4.32
2023-03-02T04:40:40.916Z,3.65
2023-03-02T04:43:09.055Z,5.75
2023-03-02T04:45:37.160Z,5.57
2023-03-02T04:48:05.615Z,4.72
2023-03-02T04:50:52.419Z,4.70
2023-03-02T04:53:20.653Z,7.38
2023-03-02T04:55:49.439Z,4.05
2023-03-02T04:58:17.642Z,3.90
2023-03-02T05:00:45.759Z,4.05
2023-03-02T05:03:13.933Z,4.55
2023-03-02T05:05:42.099Z,4.50
2023-03-02T05:08:10.331Z,2.92
2023-03-02T05:10:38.386Z,3.50
2023-03-02T05:13:06.574Z,3.10
2023-03-02T05:15:39.018Z,4.50
2023-03-02T05:18:09.273Z,3.38
2023-03-02T05:20:38.011Z,3.90
2023-03-02T05:23:08.402Z,3.75
2023-03-02T05:25:38.359Z,3.55
2023-03-02T05:28:06.646Z,3.45
2023-03-02T05:30:38.052Z,4.80
2023-03-02T05:33:06.410Z,5.13
2023-03-02T05:35:34.840Z,5.47
2023-03-02T05:38:03.191Z,5.78
2023-03-02T05:40:31.810Z,8.05
2023-03-02T05:43:00.562Z,3.63
2023-03-02T05:45:32.602Z,4.05
2023-03-02T05:48:00.824Z,4.13
2023-03-02T05:50:29.342Z,2.65
2023-03-02T05:52:58.775Z,5.13
2023-03-02T05:55:27.261Z,4.45
2023-03-02T05:57:55.859Z,5.97
2023-03-02T06:00:24.285Z,3.15
2023-03-02T06:02:52.458Z,2.42
2023-03-02T06:05:22.160Z,3.80
2023-03-02T06:07:50.396Z,4.35
2023-03-02T06:10:18.493Z,4.45
2023-03-02T06:12:46.569Z,3.35
2023-03-02T06:15:14.708Z,3.03
2023-03-02T06:17:42.957Z,3.33
2023-03-02T06:20:12.204Z,4.25
2023-03-02T06:22:43.003Z,2.33
2023-03-02T06:25:14.903Z,3.90
2023-03-02T06:27:43.818Z,5.03
2023-03-02T06:30:16.211Z,3.08
2023-03-02T06:32:44.506Z,4.43
2023-03-02T06:35:13.717Z,2.67
2023-03-02T06:37:44.157Z,3.67
2023-03-02T06:40:14.263Z,2.83
2023-03-02T06:42:43.413Z,2.08
2023-03-02T06:45:12.334Z,4.90
2023-03-02T06:47:40.597Z,3.80
2023-03-02T06:50:28.563Z,3.22
2023-03-02T06:52:57.152Z,2.30
2023-03-02T06:55:25.202Z,2.95
2023-03-02T06:57:53.463Z,4.35
2023-03-02T07:00:26.584Z,5.93
2023-03-02T07:02:56.398Z,5.05
2023-03-02T07:05:25.188Z,3.38
2023-03-02T07:07:53.326Z,4.47
2023-03-02T07:10:21.459Z,3.33
2023-03-02T07:12:49.600Z,2.88
2023-03-02T07:15:17.822Z,4.38
2023-03-02T07:17:46.711Z,4.30
2023-03-02T07:20:34.565Z,4.38
2023-03-02T07:23:20.966Z,2.50
2023-03-02T07:25:49.120Z,2.28
2023-03-02T07:28:17.321Z,3.88
2023-03-02T07:30:45.549Z,3.88
2023-03-02T07:33:13.811Z,4.63
2023-03-02T07:35:42.006Z,3.53
2023-03-02T07:38:10.205Z,3.25
2023-03-02T07:40:42.518Z,5.13
2023-03-02T07:43:11.219Z,3.75
2023-03-02T07:45:39.594Z,4.57
2023-03-02T07:48:07.936Z,4.93
2023-03-02T07:50:36.045Z,3.80
2023-03-02T07:53:04.305Z,5.65
2023-03-02T07:55:32.542Z,3.97
2023-03-02T07:58:00.750Z,4.10
2023-03-02T08:00:49.736Z,4.50
2023-03-02T08:03:17.940Z,4.30
2023-03-02T08:06:13.989Z,3.15
2023-03-02T08:09:02.985Z,4.80
2023-03-02T08:11:49.816Z,5.00
2023-03-02T08:14:17.967Z,2.70
2023-03-02T08:16:46.232Z,2.95
2023-03-02T08:19:14.355Z,3.95
2023-03-02T08:21:42.609Z,3.63
2023-03-02T08:24:12.003Z,3.38
2023-03-02T08:27:03.135Z,3.92
2023-03-02T08:29:31.498Z,2.50
2023-03-02T08:31:59.844Z,3.15
2023-03-02T08:34:28.418Z,3.17
2023-03-02T08:36:56.578Z,3.38
2023-03-02T08:39:24.774Z,4.50
2023-03-02T08:41:54.043Z,5.35
2023-03-02T08:44:42.236Z,2.03
2023-03-02T08:47:10.363Z,3.40
2023-03-02T08:49:38.532Z,2.05
2023-03-02T08:52:06.972Z,3.05
2023-03-02T08:54:35.112Z,2.90
2023-03-02T08:57:03.427Z,2.65
2023-03-02T08:59:31.669Z,4.80
2023-03-02T09:01:59.931Z,3.30
2023-03-02T09:04:28.154Z,1.70
2023-03-02T09:06:56.327Z,2.78
2023-03-02T09:09:24.549Z,4.43
2023-03-02T09:11:52.646Z,4.10
2023-03-02T09:14:20.958Z,1.98
2023-03-02T09:16:49.507Z,2.53
2023-03-02T09:19:17.698Z,1.63
2023-03-02T09:21:46.091Z,2.25
2023-03-02T09:24:14.244Z,2.33
2023-03-02T09:26:42.323Z,1.63
2023-03-02T09:31:56.073Z,3.58
2023-03-02T09:34:42.693Z,1.75
2023-03-02T09:37:10.933Z,3.10
2023-03-02T09:39:39.901Z,2.47
2023-03-02T09:42:24.076Z,1.40
2023-03-02T09:45:21.667Z,2.17
2023-03-02T09:48:28.453Z,1.92
2023-03-02T09:51:16.684Z,2.88
2023-03-02T09:53:58.243Z,3.35
2023-03-02T09:56:27.317Z,1.70
2023-03-02T09:59:16.395Z,4.40
2023-03-02T10:01:55.326Z,1.92
2023-03-02T10:04:39.052Z,1.95
2023-03-02T10:07:31.791Z,2.67
2023-03-02T10:10:18.663Z,2.05
2023-03-02T10:12:52.577Z,1.95
2023-03-02T10:15:43.732Z,6.10
2023-03-02T10:18:21.498Z,3.25
2023-03-02T10:21:02.236Z,4.13
2023-03-02T10:23:33.220Z,2.33
2023-03-02T10:26:16.552Z,3.83
2023-03-02T10:29:17.572Z,4.30
2023-03-02T10:31:47.281Z,5.13
2023-03-02T10:34:16.454Z,3.45
2023-03-02T10:36:47.854Z,3.90
2023-03-02T10:39:17.904Z,2.42
2023-03-02T10:41:54.045Z,5.82
2023-03-02T10:47:28.796Z,5.63
2023-03-02T10:49:58.507Z,9.68
2023-03-02T10:52:28.571Z,6.60
2023-03-02T10:55:07.199Z,4.55
2023-03-02T10:57:35.194Z,4.05
2023-03-02T11:00:18.483Z,4.25
2023-03-02T11:02:52.300Z,3.83
2023-03-02T11:05:35.900Z,5.32
2023-03-02T11:08:10.468Z,4.40
2023-03-02T11:10:51.752Z,4.43
2023-03-02T11:13:29.816Z,4.20
2023-03-02T11:16:00.776Z,4.65
2023-03-02T11:18:38.719Z,5.30
2023-03-02T11:21:24.172Z,3.38
2023-03-02T11:24:06.379Z,5.97
2023-03-02T11:26:39.714Z,3.50
2023-03-02T11:29:25.676Z,5.38
2023-03-02T11:32:16.645Z,3.42
2023-03-02T11:35:13.802Z,3.25
2023-03-02T11:38:11.032Z,4.65
2023-03-02T11:40:50.335Z,4.43
2023-03-02T11:43:18.412Z,4.65
2023-03-02T11:45:59.092Z,5.47
2023-03-02T11:48:43.869Z,2.22
2023-03-02T11:51:28.858Z,3.20
2023-03-02T11:54:03.140Z,4.20
2023-03-02T11:56:37.202Z,7.88
2023-03-02T11:59:11.732Z,3.92
2023-03-02T12:01:40.687Z,5.20
2023-03-02T12:04:32.678Z,5.93
2023-03-02T12:07:23.110Z,4.57
2023-03-02T12:10:01.586Z,7.80
2023-03-02T12:13:03.815Z,7.10
2023-03-02T12:15:39.274Z,6.45
2023-03-02T12:18:29.045Z,3.72
2023-03-02T12:21:10.364Z,7.72
2023-03-02T12:23:55.533Z,7.30
2023-03-02T12:26:38.381Z,7.22
2023-03-02T12:29:24.270Z,9.23
2023-03-02T12:31:55.531Z,3.03
2023-03-02T12:34:33.484Z,8.43
2023-03-02T12:37:13.130Z,6.35
2023-03-02T12:40:21.979Z,6.22
2023-03-02T12:43:35.526Z,5.85
2023-03-02T12:46:09.554Z,4.13
2023-03-02T12:49:15.377Z,3.45
2023-03-02T12:51:50.842Z,4.40
2023-03-02T12:54:21.671Z,4.07
2023-03-02T12:57:15.199Z,3.90
2023-03-02T12:59:44.248Z,3.88
2023-03-02T13:02:21.643Z,7.97
2023-03-02T13:05:09.345Z,4.68
2023-03-02T13:07:42.093Z,6.70
2023-03-02T13:10:31.292Z,6.53
2023-03-02T13:13:00.087Z,7.38
2023-03-02T13:15:28.730Z,8.00
2023-03-02T13:18:00.227Z,10.70
2023-03-02T13:22:57.606Z,8.15
2023-03-02T13:25:31.217Z,11.05
2023-03-02T13:28:04.695Z,6.25
2023-03-02T13:30:57.697Z,4.32
2023-03-02T13:33:27.684Z,8.88
2023-03-02T13:36:25.212Z,5.20
2023-03-02T13:38:56.464Z,6.82
2023-03-02T13:41:26.697Z,5.60
2023-03-02T13:44:23.478Z,5.53
2023-03-02T13:46:51.524Z,6.32
2023-03-02T13:49:34.009Z,5.75
2023-03-02T13:52:08.231Z,7.43
2023-03-02T13:54:37.749Z,7.78
2023-03-02T13:57:07.177Z,9.75
2023-03-02T13:59:36.943Z,6.88
2023-03-02T14:02:25.057Z,4.85
2023-03-02T14:04:53.716Z,2.88
2023-03-02T14:07:21.815Z,5.35
2023-03-02T14:12:35.770Z,4.05
2023-03-02T14:15:04.847Z,6.65
2023-03-02T14:17:32.875Z,5.28
2023-03-02T14:20:01.124Z,5.20
2023-03-02T14:22:30.473Z,5.20
2023-03-02T14:24:58.497Z,4.10
2023-03-02T14:30:19.165Z,4.53
2023-03-02T14:32:47.797Z,7.05
2023-03-02T14:35:16.937Z,2.45
2023-03-02T14:37:48.686Z,5.38
2023-03-02T14:40:28.416Z,6.72
2023-03-02T14:42:56.569Z,3.33
2023-03-02T14:45:24.727Z,5.20
2023-03-02T14:47:52.712Z,5.60
2023-03-02T14:50:20.700Z,5.28
2023-03-02T14:52:52.049Z,5.13
2023-03-02T14:55:31.255Z,3.70
2023-03-02T14:58:02.907Z,6.28
2023-03-02T15:00:31.245Z,4.60
2023-03-02T15:02:59.625Z,4.78
2023-03-02T15:05:27.781Z,6.05
2023-03-02T15:07:58.686Z,4.32
2023-03-02T15:10:27.347Z,3.20
2023-03-02T15:15:42.828Z,9.35
2023-03-02T15:18:15.182Z,5.97
2023-03-02T15:20:43.215Z,3.72
2023-03-02T15:23:11.284Z,5.30
2023-03-02T15:25:39.418Z,3.83
2023-03-02T15:28:07.434Z,3.10
2023-03-02T15:30:35.541Z,5.22
2023-03-02T15:33:22.006Z,2.25
2023-03-02T15:35:55.540Z,4.00
2023-03-02T15:38:23.856Z,5.53
2023-03-02T15:40:52.007Z,3.28
2023-03-02T15:43:20.077Z,2.70
2023-03-02T15:45:48.176Z,5.18
2023-03-02T15:48:16.417Z,2.20
2023-03-02T15:50:44.537Z,3.90
2023-03-02T15:53:12.628Z,2.90
2023-03-02T15:55:41.992Z,6.30
2023-03-02T15:58:28.356Z,5.43
2023-03-02T16:00:57.217Z,1.75
2023-03-02T16:03:25.354Z,5.10
2023-03-02T16:08:39.067Z,6.68
2023-03-02T16:11:08.624Z,5.63
2023-03-02T16:13:36.906Z,6.13
2023-03-02T16:16:06.291Z,4.80
2023-03-02T16:18:34.375Z,5.47
2023-03-02T16:21:03.716Z,4.47
2023-03-02T16:23:31.860Z,9.32
2023-03-02T16:26:08.762Z,5.20
2023-03-02T16:28:36.931Z,5.18
2023-03-02T16:31:06.509Z,4.35
2023-03-02T16:33:35.073Z,4.85
2023-03-02T16:36:22.675Z,3.78
2023-03-02T16:38:50.773Z,3.75
2023-03-02T16:41:21.455Z,6.88
2023-03-02T16:43:58.215Z,6.10
2023-03-02T16:46:29.418Z,5.47
2023-03-02T16:48:58.328Z,7.03
2023-03-02T16:54:16.790Z,2.55
2023-03-02T16:56:47.778Z,6.32
2023-03-02T16:59:16.412Z,3.42
2023-03-02T17:01:44.818Z,4.40
2023-03-02T17:04:13.080Z,3.47
2023-03-02T17:06:59.769Z,2.95
2023-03-02T17:09:28.560Z,10.52
2023-03-02T17:11:56.922Z,3.47
2023-03-02T17:14:25.011Z,2.83
2023-03-02T17:16:53.440Z,5.53
2023-03-02T17:19:21.873Z,3.65
2023-03-02T17:21:49.936Z,6.55
2023-03-02T17:24:18.023Z,4.85
2023-03-02T17:26:47.416Z,7.68
2023-03-02T17:29:15.556Z,3.72
2023-03-02T17:31:43.924Z,9.45
2023-03-02T17:34:31.640Z,6.85
2023-03-02T17:37:00.998Z,3.70
2023-03-02T17:39:29.869Z,5.25
2023-03-02T17:41:57.978Z,5.20
2023-03-02T17:44:26.087Z,5.60
2023-03-02T17:46:54.295Z,5.28
2023-03-02T17:49:22.376Z,10.02
2023-03-02T17:51:50.417Z,8.27
2023-03-02T17:54:18.544Z,5.70
2023-03-02T17:56:46.703Z,4.95
2023-03-02T17:59:15.076Z,3.88
2023-03-02T18:02:01.834Z,3.45
2023-03-02T18:04:29.895Z,4.38
2023-03-02T18:06:58.076Z,6.13
2023-03-02T18:09:26.223Z,9.55
2023-03-02T18:11:54.370Z,7.00
2023-03-02T18:14:22.646Z,8.05
2023-03-02T18:16:50.765Z,6.45
2023-03-02T18:19:18.856Z,8.63
2023-03-02T18:21:46.928Z,6.07
2023-03-02T18:24:15.232Z,7.85
2023-03-02T18:26:43.426Z,4.43
2023-03-02T18:29:11.473Z,5.82
2023-03-02T18:31:39.846Z,6.32
2023-03-02T18:34:08.051Z,8.27
2023-03-02T18:36:54.557Z,14.55
2023-03-02T18:42:08.510Z,5.30
2023-03-02T18:47:22.561Z,6.40
2023-03-02T18:49:50.834Z,7.05
2023-03-02T18:52:19.872Z,4.40
2023-03-02T18:55:06.895Z,7.88
2023-03-02T18:57:36.421Z,4.82
2023-03-02T19:00:13.075Z,6.95
2023-03-02T19:02:41.194Z,7.15
2023-03-02T19:05:09.725Z,3.25
2023-03-02T19:07:37.820Z,5.97
2023-03-02T19:10:06.324Z,7.38
2023-03-02T19:12:35.601Z,8.63
2023-03-02T19:15:05.119Z,7.25
2023-03-02T19:17:33.242Z,4.63
2023-03-02T19:20:02.907Z,3.42
2023-03-02T19:22:30.990Z,4.07
2023-03-02T19:24:59.229Z,6.38
2023-03-02T19:27:27.388Z,8.90
2023-03-02T19:29:55.562Z,6.45
2023-03-02T19:32:24.799Z,9.43
2023-03-02T19:34:52.921Z,5.45
2023-03-02T19:37:21.192Z,8.27
2023-03-02T19:39:50.069Z,5.90
2023-03-02T19:42:18.288Z,4.25
2023-03-02T19:44:46.433Z,4.90
2023-03-02T19:47:14.507Z,6.70
2023-03-02T19:49:42.633Z,7.63
2023-03-02T19:52:10.777Z,9.32
2023-03-02T19:54:39.056Z,3.75
2023-03-02T19:57:08.342Z,6.05
2023-03-02T19:59:40.685Z,9.13
2023-03-02T20:02:09.272Z,5.35
2023-03-02T20:04:37.448Z,6.25
2023-03-02T20:07:05.609Z,9.43
2023-03-02T20:09:33.697Z,9.77
2023-03-02T20:12:02.842Z,7.28
2023-03-02T20:14:34.120Z,13.27
2023-03-02T20:17:03.901Z,14.27
2023-03-02T20:19:32.250Z,11.35
2023-03-02T20:22:03.025Z,10.57
2023-03-02T20:24:31.285Z,12.52
2023-03-02T20:26:59.623Z,7.38
2023-03-02T20:29:27.786Z,10.88
2023-03-02T20:31:55.956Z,6.55
2023-03-02T20:34:24.150Z,6.20
2023-03-02T20:36:52.414Z,8.38
2023-03-02T20:39:34.342Z,8.43
2023-03-02T20:42:04.497Z,14.60
2023-03-02T20:44:32.798Z,15.55
2023-03-02T20:47:07.424Z,15.65
2023-03-02T20:49:37.604Z,15.85
2023-03-02T20:52:07.389Z,13.00
2023-03-02T20:54:39.762Z,11.98
2023-03-02T20:57:08.903Z,10.38
2023-03-02T20:59:38.051Z,9.07
2023-03-02T21:02:06.374Z,6.20
2023-03-02T21:04:36.347Z,8.05
2023-03-02T21:07:04.724Z,7.25
2023-03-02T21:09:32.851Z,11.70
2023-03-02T21:12:01.141Z,7.55
2023-03-02T21:14:30.950Z,8.30
2023-03-02T21:16:59.890Z,8.95
2023-03-02T21:19:29.918Z,12.52
2023-03-02T21:21:58.919Z,12.88
2023-03-02T21:24:26.970Z,9.63
2023-03-02T21:26:55.868Z,15.60
2023-03-02T21:29:25.502Z,11.00
2023-03-02T21:31:54.326Z,17.52
2023-03-02T21:34:22.767Z,12.00
2023-03-02T21:36:53.878Z,11.02
2023-03-02T21:39:25.929Z,9.60
2023-03-02T21:41:54.776Z,11.73
2023-03-02T21:44:23.231Z,11.55
2023-03-02T21:46:51.306Z,14.52
2023-03-02T21:49:21.977Z,9.57
2023-03-02T21:51:50.477Z,11.80
2023-03-02T21:54:37.041Z,13.35
2023-03-02T21:57:05.187Z,12.23
2023-03-02T21:59:33.282Z,9.45
2023-03-02T22:02:01.581Z,12.63
2023-03-02T22:04:29.726Z,11.63
2023-03-02T22:07:16.623Z,11.93
2023-03-02T22:09:44.746Z,9.55
2023-03-02T22:12:32.118Z,8.32
2023-03-02T22:15:04.314Z,13.75
2023-03-02T22:17:32.457Z,12.10
2023-03-02T22:20:00.528Z,14.00
2023-03-02T22:22:32.005Z,10.02
2023-03-02T22:25:00.198Z,14.00
2023-03-02T22:27:31.716Z,12.18
2023-03-02T22:30:01.994Z,10.70
2023-03-02T22:32:35.552Z,8.40
2023-03-02T22:35:26.821Z,12.15
2023-03-02T22:38:12.146Z,10.85
2023-03-02T22:40:41.604Z,7.93
2023-03-02T22:43:26.859Z,8.27
2023-03-02T22:46:02.099Z,12.52
2023-03-02T22:51:30.212Z,8.15
2023-03-02T22:54:00.275Z,9.65
2023-03-02T22:56:40.827Z,10.00
2023-03-02T22:59:21.605Z,10.48
2023-03-02T23:02:18.050Z,12.13
2023-03-02T23:04:48.446Z,12.52
2023-03-02T23:07:22.373Z,11.77
2023-03-02T23:09:50.582Z,9.70
2023-03-02T23:12:27.475Z,10.35
2023-03-02T23:14:57.918Z,12.13
2023-03-02T23:17:39.695Z,14.45
2023-03-02T23:20:11.241Z,11.68
2023-03-02T23:22:39.920Z,10.85
2023-03-02T23:25:26.587Z,11.57
2023-03-02T23:27:54.683Z,10.95
2023-03-02T23:30:22.887Z,10.75
2023-03-02T23:32:51.015Z,11.90
2023-03-02T23:35:19.165Z,9.40
2023-03-02T23:37:47.195Z,10.02
2023-03-02T23:40:15.913Z,9.90
2023-03-02T23:42:44.082Z,9.32
2023-03-02T23:45:12.172Z,10.60
2023-03-02T23:47:40.284Z,10.15
2023-03-02T23:50:09.302Z,9.05
2023-03-02T23:52:38.712Z,6.40
2023-03-02T23:55:08.232Z,8.80
2023-03-02T23:57:36.397Z,10.20
